sensor_id;sensor_type;location;lat;lon;timestamp;P1;durP1;ratioP1;P2;durP2;ratioP2
16254;SDS011;8235;52.198;9.904;2023-07-28T00:00:59;4.97;;;4.50;;
16254;SDS011;8235;52.198;9.904;2023-07-28T00:03:27;5.63;;;4.87;;
16254;SDS011;8235;52.198;9.904;2023-07-28T00:05:56;5.50;;;4.93;;
16254;SDS011;8235;52.198;9.904;2023-07-28T00:08:26;5.37;;;4.93;;
16254;SDS011;8235;52.198;9.904;2023-07-28T00:10:57;5.20;;;4.80;;
16254;SDS011;8235;52.198;9.904;2023-07-28T00:13:27;5.57;;;5.07;;
16254;SDS011;8235;52.198;9.904;2023-07-28T00:16:08;5.20;;;4.77;;
16254;SDS011;8235;52.198;9.904;2023-07-28T00:18:49;5.43;;;4.93;;
16254;SDS011;8235;52.198;9.904;2023-07-28T00:21:16;6.37;;;5.23;;
16254;SDS011;8235;52.198;9.904;2023-07-28T00:23:44;5.47;;;5.07;;
16254;SDS011;8235;52.198;9.904;2023-07-28T00:26:19;6.00;;;5.50;;
16254;SDS011;8235;52.198;9.904;2023-07-28T00:28:54;5.77;;;5.00;;
16254;SDS011;8235;52.198;9.904;2023-07-28T00:31:24;6.00;;;5.60;;
16254;SDS011;8235;52.198;9.904;2023-07-28T00:33:55;6.00;;;5.40;;
16254;SDS011;8235;52.198;9.904;2023-07-28T00:36:24;6.03;;;4.83;;
16254;SDS011;8235;52.198;9.904;2023-07-28T00:38:50;5.03;;;4.73;;
16254;SDS011;8235;52.198;9.904;2023-07-28T00:41:28;7.33;;;5.10;;
16254;SDS011;8235;52.198;9.904;2023-07-28T00:43:56;5.53;;;5.00;;
16254;SDS011;8235;52.198;9.904;2023-07-28T00:46:24;5.23;;;4.83;;
16254;SDS011;8235;52.198;9.904;2023-07-28T00:48:50;5.10;;;4.70;;
16254;SDS011;8235;52.198;9.904;2023-07-28T00:51:17;5.67;;;5.13;;
16254;SDS011;8235;52.198;9.904;2023-07-28T00:53:52;5.40;;;4.90;;
16254;SDS011;8235;52.198;9.904;2023-07-28T00:56:24;5.03;;;4.60;;
16254;SDS011;8235;52.198;9.904;2023-07-28T00:58:57;5.07;;;4.77;;
16254;SDS011;8235;52.198;9.904;2023-07-28T01:01:27;5.50;;;5.10;;
16254;SDS011;8235;52.198;9.904;2023-07-28T01:03:54;5.50;;;4.60;;
16254;SDS011;8235;52.198;9.904;2023-07-28T01:06:26;6.00;;;5.07;;
16254;SDS011;8235;52.198;9.904;2023-07-28T01:09:02;6.83;;;5.23;;
16254;SDS011;8235;52.198;9.904;2023-07-28T01:11:38;5.23;;;4.73;;
16254;SDS011;8235;52.198;9.904;2023-07-28T01:14:07;5.13;;;4.03;;
16254;SDS011;8235;52.198;9.904;2023-07-28T01:16:37;4.47;;;4.07;;
16254;SDS011;8235;52.198;9.904;2023-07-28T01:19:04;4.87;;;4.47;;
16254;SDS011;8235;52.198;9.904;2023-07-28T01:21:30;4.70;;;4.30;;
16254;SDS011;8235;52.198;9.904;2023-07-28T01:23:59;4.43;;;3.90;;
16254;SDS011;8235;52.198;9.904;2023-07-28T01:26:34;4.53;;;4.20;;
16254;SDS011;8235;52.198;9.904;2023-07-28T01:29:01;4.50;;;4.10;;
16254;SDS011;8235;52.198;9.904;2023-07-28T01:31:29;4.70;;;4.40;;
16254;SDS011;8235;52.198;9.904;2023-07-28T01:33:56;4.40;;;4.00;;
16254;SDS011;8235;52.198;9.904;2023-07-28T01:36:22;3.90;;;3.60;;
16254;SDS011;8235;52.198;9.904;2023-07-28T01:38:49;3.50;;;3.30;;
16254;SDS011;8235;52.198;9.904;2023-07-28T01:41:15;4.00;;;3.70;;
16254;SDS011;8235;52.198;9.904;2023-07-28T01:43:43;3.50;;;3.20;;
16254;SDS011;8235;52.198;9.904;2023-07-28T01:46:10;4.60;;;3.57;;
16254;SDS011;8235;52.198;9.904;2023-07-28T01:48:36;3.33;;;2.93;;
16254;SDS011;8235;52.198;9.904;2023-07-28T01:51:03;3.20;;;2.97;;
16254;SDS011;8235;52.198;9.904;2023-07-28T01:53:29;3.27;;;2.97;;
16254;SDS011;8235;52.198;9.904;2023-07-28T01:55:56;2.70;;;2.50;;
16254;SDS011;8235;52.198;9.904;2023-07-28T01:58:22;3.03;;;2.83;;
16254;SDS011;8235;52.198;9.904;2023-07-28T02:00:50;2.93;;;2.23;;
16254;SDS011;8235;52.198;9.904;2023-07-28T02:03:16;2.30;;;2.10;;
16254;SDS011;8235;52.198;9.904;2023-07-28T02:05:43;2.40;;;1.97;;
16254;SDS011;8235;52.198;9.904;2023-07-28T02:08:10;3.90;;;2.20;;
16254;SDS011;8235;52.198;9.904;2023-07-28T02:10:37;2.17;;;1.97;;
16254;SDS011;8235;52.198;9.904;2023-07-28T02:13:04;2.23;;;1.50;;
16254;SDS011;8235;52.198;9.904;2023-07-28T02:15:30;1.60;;;1.50;;
16254;SDS011;8235;52.198;9.904;2023-07-28T02:17:58;2.57;;;1.70;;
16254;SDS011;8235;52.198;9.904;2023-07-28T02:20:24;2.40;;;1.70;;
16254;SDS011;8235;52.198;9.904;2023-07-28T02:22:51;1.50;;;1.40;;
16254;SDS011;8235;52.198;9.904;2023-07-28T02:25:17;1.60;;;1.50;;
16254;SDS011;8235;52.198;9.904;2023-07-28T02:27:44;3.43;;;1.93;;
16254;SDS011;8235;52.198;9.904;2023-07-28T02:30:10;2.30;;;2.20;;
16254;SDS011;8235;52.198;9.904;2023-07-28T02:32:37;2.00;;;1.70;;
16254;SDS011;8235;52.198;9.904;2023-07-28T02:35:05;2.93;;;2.10;;
16254;SDS011;8235;52.198;9.904;2023-07-28T02:37:32;1.97;;;1.87;;
16254;SDS011;8235;52.198;9.904;2023-07-28T02:39:58;2.30;;;2.10;;
16254;SDS011;8235;52.198;9.904;2023-07-28T02:42:25;2.67;;;1.83;;
16254;SDS011;8235;52.198;9.904;2023-07-28T02:44:51;2.20;;;2.10;;
16254;SDS011;8235;52.198;9.904;2023-07-28T02:47:18;1.93;;;1.77;;
16254;SDS011;8235;52.198;9.904;2023-07-28T02:49:44;2.00;;;1.90;;
16254;SDS011;8235;52.198;9.904;2023-07-28T02:52:13;1.80;;;1.70;;
16254;SDS011;8235;52.198;9.904;2023-07-28T02:54:39;2.47;;;1.90;;
16254;SDS011;8235;52.198;9.904;2023-07-28T02:57:06;2.70;;;2.00;;
16254;SDS011;8235;52.198;9.904;2023-07-28T02:59:32;3.30;;;1.70;;
16254;SDS011;8235;52.198;9.904;2023-07-28T03:01:59;1.80;;;1.60;;
16254;SDS011;8235;52.198;9.904;2023-07-28T03:04:25;2.37;;;1.50;;
16254;SDS011;8235;52.198;9.904;2023-07-28T03:06:52;3.17;;;1.60;;
16254;SDS011;8235;52.198;9.904;2023-07-28T03:09:20;2.00;;;1.60;;
16254;SDS011;8235;52.198;9.904;2023-07-28T03:11:46;1.60;;;1.50;;
16254;SDS011;8235;52.198;9.904;2023-07-28T03:14:13;3.17;;;1.50;;
16254;SDS011;8235;52.198;9.904;2023-07-28T03:16:40;2.13;;;1.23;;
16254;SDS011;8235;52.198;9.904;2023-07-28T03:19:07;1.90;;;1.40;;
16254;SDS011;8235;52.198;9.904;2023-07-28T03:21:33;1.87;;;1.47;;
16254;SDS011;8235;52.198;9.904;2023-07-28T03:24:00;1.87;;;1.60;;
16254;SDS011;8235;52.198;9.904;2023-07-28T03:26:28;2.00;;;1.57;;
16254;SDS011;8235;52.198;9.904;2023-07-28T03:28:54;1.30;;;1.20;;
16254;SDS011;8235;52.198;9.904;2023-07-28T03:31:20;1.70;;;1.50;;
16254;SDS011;8235;52.198;9.904;2023-07-28T03:33:47;1.70;;;1.40;;
16254;SDS011;8235;52.198;9.904;2023-07-28T03:36:13;1.90;;;1.60;;
16254;SDS011;8235;52.198;9.904;2023-07-28T03:38:40;1.70;;;1.53;;
16254;SDS011;8235;52.198;9.904;2023-07-28T03:41:06;1.83;;;1.50;;
16254;SDS011;8235;52.198;9.904;2023-07-28T03:43:35;1.70;;;1.60;;
16254;SDS011;8235;52.198;9.904;2023-07-28T03:46:02;1.60;;;1.50;;
16254;SDS011;8235;52.198;9.904;2023-07-28T03:48:28;1.67;;;1.57;;
16254;SDS011;8235;52.198;9.904;2023-07-28T03:50:55;2.10;;;2.00;;
16254;SDS011;8235;52.198;9.904;2023-07-28T03:53:21;9.20;;;2.17;;
16254;SDS011;8235;52.198;9.904;2023-07-28T03:55:48;1.97;;;1.80;;
16254;SDS011;8235;52.198;9.904;2023-07-28T03:58:14;2.33;;;1.90;;
16254;SDS011;8235;52.198;9.904;2023-07-28T04:00:42;2.27;;;2.10;;
16254;SDS011;8235;52.198;9.904;2023-07-28T04:03:08;2.20;;;1.77;;
16254;SDS011;8235;52.198;9.904;2023-07-28T04:05:36;2.10;;;2.00;;
16254;SDS011;8235;52.198;9.904;2023-07-28T04:08:02;2.00;;;1.90;;
16254;SDS011;8235;52.198;9.904;2023-07-28T04:10:29;2.20;;;2.10;;
16254;SDS011;8235;52.198;9.904;2023-07-28T04:12:55;2.80;;;2.37;;
16254;SDS011;8235;52.198;9.904;2023-07-28T04:15:22;2.10;;;2.00;;
16254;SDS011;8235;52.198;9.904;2023-07-28T04:17:50;2.63;;;2.10;;
16254;SDS011;8235;52.198;9.904;2023-07-28T04:20:16;3.20;;;2.60;;
16254;SDS011;8235;52.198;9.904;2023-07-28T04:22:42;2.30;;;2.13;;
16254;SDS011;8235;52.198;9.904;2023-07-28T04:25:09;2.20;;;2.10;;
16254;SDS011;8235;52.198;9.904;2023-07-28T04:27:35;2.10;;;2.00;;
16254;SDS011;8235;52.198;9.904;2023-07-28T04:30:02;2.00;;;1.90;;
16254;SDS011;8235;52.198;9.904;2023-07-28T04:32:29;1.80;;;1.70;;
16254;SDS011;8235;52.198;9.904;2023-07-28T04:34:57;1.47;;;1.30;;
16254;SDS011;8235;52.198;9.904;2023-07-28T04:37:23;1.50;;;1.40;;
16254;SDS011;8235;52.198;9.904;2023-07-28T04:39:50;1.40;;;1.30;;
16254;SDS011;8235;52.198;9.904;2023-07-28T04:42:16;2.73;;;1.47;;
16254;SDS011;8235;52.198;9.904;2023-07-28T04:44:43;1.67;;;1.27;;
16254;SDS011;8235;52.198;9.904;2023-07-28T04:47:10;1.20;;;1.10;;
16254;SDS011;8235;52.198;9.904;2023-07-28T04:49:37;1.30;;;1.20;;
16254;SDS011;8235;52.198;9.904;2023-07-28T04:52:05;1.40;;;1.30;;
16254;SDS011;8235;52.198;9.904;2023-07-28T04:54:32;1.40;;;1.13;;
16254;SDS011;8235;52.198;9.904;2023-07-28T04:56:59;1.30;;;1.20;;
16254;SDS011;8235;52.198;9.904;2023-07-28T04:59:25;1.50;;;1.40;;
16254;SDS011;8235;52.198;9.904;2023-07-28T05:01:52;2.27;;;1.70;;
16254;SDS011;8235;52.198;9.904;2023-07-28T05:04:18;1.77;;;1.67;;
16254;SDS011;8235;52.198;9.904;2023-07-28T05:06:45;3.17;;;1.80;;
16254;SDS011;8235;52.198;9.904;2023-07-28T05:09:13;4.07;;;1.90;;
16254;SDS011;8235;52.198;9.904;2023-07-28T05:11:38;2.83;;;2.63;;
16254;SDS011;8235;52.198;9.904;2023-07-28T05:14:05;2.43;;;2.23;;
16254;SDS011;8235;52.198;9.904;2023-07-28T05:16:33;22.03;;;5.33;;
16254;SDS011;8235;52.198;9.904;2023-07-28T05:19:00;3.70;;;3.23;;
16254;SDS011;8235;52.198;9.904;2023-07-28T05:21:26;2.87;;;2.63;;
16254;SDS011;8235;52.198;9.904;2023-07-28T05:23:53;3.07;;;2.70;;
16254;SDS011;8235;52.198;9.904;2023-07-28T05:26:21;2.90;;;2.47;;
16254;SDS011;8235;52.198;9.904;2023-07-28T05:28:48;3.03;;;2.77;;
16254;SDS011;8235;52.198;9.904;2023-07-28T05:31:15;3.00;;;2.80;;
16254;SDS011;8235;52.198;9.904;2023-07-28T05:33:41;3.17;;;2.97;;
16254;SDS011;8235;52.198;9.904;2023-07-28T05:36:08;5.60;;;3.87;;
16254;SDS011;8235;52.198;9.904;2023-07-28T05:38:34;3.30;;;3.00;;
16254;SDS011;8235;52.198;9.904;2023-07-28T05:41:01;3.43;;;3.20;;
16254;SDS011;8235;52.198;9.904;2023-07-28T05:43:30;3.53;;;3.23;;
16254;SDS011;8235;52.198;9.904;2023-07-28T05:45:57;3.53;;;3.23;;
16254;SDS011;8235;52.198;9.904;2023-07-28T05:48:24;3.33;;;3.03;;
16254;SDS011;8235;52.198;9.904;2023-07-28T05:50:50;3.37;;;3.10;;
16254;SDS011;8235;52.198;9.904;2023-07-28T05:53:18;3.00;;;2.80;;
16254;SDS011;8235;52.198;9.904;2023-07-28T05:55:47;3.40;;;3.10;;
16254;SDS011;8235;52.198;9.904;2023-07-28T05:58:13;3.30;;;2.93;;
16254;SDS011;8235;52.198;9.904;2023-07-28T06:00:50;2.90;;;2.60;;
16254;SDS011;8235;52.198;9.904;2023-07-28T06:03:17;3.60;;;3.30;;
16254;SDS011;8235;52.198;9.904;2023-07-28T06:05:43;3.03;;;2.67;;
16254;SDS011;8235;52.198;9.904;2023-07-28T06:08:09;4.30;;;3.70;;
16254;SDS011;8235;52.198;9.904;2023-07-28T06:10:36;3.40;;;3.20;;
16254;SDS011;8235;52.198;9.904;2023-07-28T06:13:03;4.17;;;3.87;;
16254;SDS011;8235;52.198;9.904;2023-07-28T06:15:30;3.40;;;3.10;;
16254;SDS011;8235;52.198;9.904;2023-07-28T06:17:58;3.57;;;3.27;;
16254;SDS011;8235;52.198;9.904;2023-07-28T06:20:24;3.63;;;3.33;;
16254;SDS011;8235;52.198;9.904;2023-07-28T06:22:51;3.60;;;3.30;;
16254;SDS011;8235;52.198;9.904;2023-07-28T06:25:17;3.83;;;3.53;;
16254;SDS011;8235;52.198;9.904;2023-07-28T06:27:44;3.97;;;3.40;;
16254;SDS011;8235;52.198;9.904;2023-07-28T06:30:10;4.60;;;3.87;;
16254;SDS011;8235;52.198;9.904;2023-07-28T06:32:37;3.93;;;3.63;;
16254;SDS011;8235;52.198;9.904;2023-07-28T06:35:05;3.47;;;3.27;;
16254;SDS011;8235;52.198;9.904;2023-07-28T06:37:34;4.07;;;3.07;;
16254;SDS011;8235;52.198;9.904;2023-07-28T06:40:11;5.13;;;3.37;;
16254;SDS011;8235;52.198;9.904;2023-07-28T06:42:44;3.40;;;3.20;;
16254;SDS011;8235;52.198;9.904;2023-07-28T06:45:11;4.97;;;3.27;;
16254;SDS011;8235;52.198;9.904;2023-07-28T06:47:39;4.00;;;3.70;;
16254;SDS011;8235;52.198;9.904;2023-07-28T06:50:07;4.10;;;3.80;;
16254;SDS011;8235;52.198;9.904;2023-07-28T06:52:34;4.80;;;4.40;;
16254;SDS011;8235;52.198;9.904;2023-07-28T06:55:01;4.10;;;3.70;;
16254;SDS011;8235;52.198;9.904;2023-07-28T06:57:28;4.50;;;4.10;;
16254;SDS011;8235;52.198;9.904;2023-07-28T06:59:55;4.90;;;4.50;;
16254;SDS011;8235;52.198;9.904;2023-07-28T07:02:22;4.57;;;4.17;;
16254;SDS011;8235;52.198;9.904;2023-07-28T07:04:49;5.13;;;4.47;;
16254;SDS011;8235;52.198;9.904;2023-07-28T07:07:16;4.43;;;4.13;;
16254;SDS011;8235;52.198;9.904;2023-07-28T07:09:43;5.03;;;4.30;;
16254;SDS011;8235;52.198;9.904;2023-07-28T07:12:13;4.97;;;4.43;;
16254;SDS011;8235;52.198;9.904;2023-07-28T07:14:44;4.47;;;4.13;;
16254;SDS011;8235;52.198;9.904;2023-07-28T07:17:11;5.60;;;4.47;;
16254;SDS011;8235;52.198;9.904;2023-07-28T07:19:37;5.03;;;4.63;;
16254;SDS011;8235;52.198;9.904;2023-07-28T07:22:04;4.93;;;4.53;;
16254;SDS011;8235;52.198;9.904;2023-07-28T07:24:32;4.97;;;4.50;;
16254;SDS011;8235;52.198;9.904;2023-07-28T07:26:59;4.77;;;4.37;;
16254;SDS011;8235;52.198;9.904;2023-07-28T07:29:25;4.83;;;4.43;;
16254;SDS011;8235;52.198;9.904;2023-07-28T07:31:52;4.93;;;4.53;;
16254;SDS011;8235;52.198;9.904;2023-07-28T07:34:21;4.17;;;3.87;;
16254;SDS011;8235;52.198;9.904;2023-07-28T07:36:48;4.87;;;4.53;;
16254;SDS011;8235;52.198;9.904;2023-07-28T07:39:14;4.70;;;4.30;;
16254;SDS011;8235;52.198;9.904;2023-07-28T07:41:44;4.43;;;3.90;;
16254;SDS011;8235;52.198;9.904;2023-07-28T07:44:11;4.53;;;4.13;;
16254;SDS011;8235;52.198;9.904;2023-07-28T07:46:37;4.90;;;4.50;;
16254;SDS011;8235;52.198;9.904;2023-07-28T07:49:04;4.70;;;4.40;;
16254;SDS011;8235;52.198;9.904;2023-07-28T07:51:30;4.60;;;4.30;;
16254;SDS011;8235;52.198;9.904;2023-07-28T07:53:58;4.87;;;4.57;;
16254;SDS011;8235;52.198;9.904;2023-07-28T07:56:26;5.67;;;5.17;;
16254;SDS011;8235;52.198;9.904;2023-07-28T07:58:54;4.23;;;3.70;;
16254;SDS011;8235;52.198;9.904;2023-07-28T08:01:20;5.17;;;4.10;;
16254;SDS011;8235;52.198;9.904;2023-07-28T08:03:47;3.90;;;3.60;;
16254;SDS011;8235;52.198;9.904;2023-07-28T08:06:13;4.18;;;3.80;;
16254;SDS011;8235;52.198;9.904;2023-07-28T08:08:40;4.00;;;3.70;;
16254;SDS011;8235;52.198;9.904;2023-07-28T08:11:07;3.90;;;3.60;;
16254;SDS011;8235;52.198;9.904;2023-07-28T08:13:33;4.10;;;3.80;;
16254;SDS011;8235;52.198;9.904;2023-07-28T08:16:01;3.83;;;3.53;;
16254;SDS011;8235;52.198;9.904;2023-07-28T08:18:28;3.20;;;2.93;;
16254;SDS011;8235;52.198;9.904;2023-07-28T08:20:54;3.60;;;3.30;;
16254;SDS011;8235;52.198;9.904;2023-07-28T08:23:21;3.95;;;3.13;;
16254;SDS011;8235;52.198;9.904;2023-07-28T08:25:47;3.22;;;2.92;;
16254;SDS011;8235;52.198;9.904;2023-07-28T08:28:14;3.10;;;2.80;;
16254;SDS011;8235;52.198;9.904;2023-07-28T08:30:40;3.28;;;2.97;;
16254;SDS011;8235;52.198;9.904;2023-07-28T08:33:08;5.20;;;2.90;;
16254;SDS011;8235;52.198;9.904;2023-07-28T08:35:35;3.20;;;2.92;;
16254;SDS011;8235;52.198;9.904;2023-07-28T08:38:01;2.70;;;2.50;;
16254;SDS011;8235;52.198;9.904;2023-07-28T08:40:28;3.97;;;2.70;;
16254;SDS011;8235;52.198;9.904;2023-07-28T08:42:55;3.05;;;2.75;;
16254;SDS011;8235;52.198;9.904;2023-07-28T08:45:21;2.55;;;2.42;;
16254;SDS011;8235;52.198;9.904;2023-07-28T08:47:49;2.53;;;2.33;;
16254;SDS011;8235;52.198;9.904;2023-07-28T08:50:17;2.28;;;2.05;;
16254;SDS011;8235;52.198;9.904;2023-07-28T08:52:44;2.53;;;2.33;;
16254;SDS011;8235;52.198;9.904;2023-07-28T08:55:10;2.42;;;2.22;;
16254;SDS011;8235;52.198;9.904;2023-07-28T08:57:38;2.15;;;2.05;;
16254;SDS011;8235;52.198;9.904;2023-07-28T09:00:08;2.65;;;2.45;;
16254;SDS011;8235;52.198;9.904;2023-07-28T09:02:38;2.03;;;1.92;;
16254;SDS011;8235;52.198;9.904;2023-07-28T09:05:06;4.20;;;2.20;;
16254;SDS011;8235;52.198;9.904;2023-07-28T09:07:37;2.22;;;2.03;;
16254;SDS011;8235;52.198;9.904;2023-07-28T09:10:04;2.03;;;1.92;;
16254;SDS011;8235;52.198;9.904;2023-07-28T09:12:31;2.63;;;2.25;;
16254;SDS011;8235;52.198;9.904;2023-07-28T09:14:58;2.00;;;1.90;;
16254;SDS011;8235;52.198;9.904;2023-07-28T09:17:25;1.73;;;1.63;;
16254;SDS011;8235;52.198;9.904;2023-07-28T09:19:51;2.20;;;2.05;;
16254;SDS011;8235;52.198;9.904;2023-07-28T09:22:19;2.30;;;2.10;;
16254;SDS011;8235;52.198;9.904;2023-07-28T09:24:47;2.53;;;2.40;;
16254;SDS011;8235;52.198;9.904;2023-07-28T09:27:21;2.00;;;1.90;;
16254;SDS011;8235;52.198;9.904;2023-07-28T09:29:49;2.00;;;1.90;;
16254;SDS011;8235;52.198;9.904;2023-07-28T09:32:16;1.98;;;1.88;;
16254;SDS011;8235;52.198;9.904;2023-07-28T09:34:56;2.30;;;2.20;;
16254;SDS011;8235;52.198;9.904;2023-07-28T09:37:32;2.22;;;2.03;;
16254;SDS011;8235;52.198;9.904;2023-07-28T09:40:00;2.65;;;2.20;;
16254;SDS011;8235;52.198;9.904;2023-07-28T09:42:29;2.22;;;2.00;;
16254;SDS011;8235;52.198;9.904;2023-07-28T09:44:56;2.28;;;2.13;;
16254;SDS011;8235;52.198;9.904;2023-07-28T09:47:23;2.42;;;2.22;;
16254;SDS011;8235;52.198;9.904;2023-07-28T09:49:50;1.60;;;1.50;;
16254;SDS011;8235;52.198;9.904;2023-07-28T09:52:17;2.13;;;1.75;;
16254;SDS011;8235;52.198;9.904;2023-07-28T09:54:45;1.95;;;1.85;;
16254;SDS011;8235;52.198;9.904;2023-07-28T09:57:19;2.22;;;2.03;;
16254;SDS011;8235;52.198;9.904;2023-07-28T09:59:46;14.20;;;3.50;;
16254;SDS011;8235;52.198;9.904;2023-07-28T10:02:13;1.70;;;1.60;;
16254;SDS011;8235;52.198;9.904;2023-07-28T10:04:40;2.70;;;2.10;;
16254;SDS011;8235;52.198;9.904;2023-07-28T10:07:07;1.92;;;1.83;;
16254;SDS011;8235;52.198;9.904;2023-07-28T10:09:35;2.40;;;1.77;;
16254;SDS011;8235;52.198;9.904;2023-07-28T10:12:03;2.00;;;1.90;;
16254;SDS011;8235;52.198;9.904;2023-07-28T10:14:32;1.90;;;1.80;;
16254;SDS011;8235;52.198;9.904;2023-07-28T10:17:03;2.85;;;2.10;;
16254;SDS011;8235;52.198;9.904;2023-07-28T10:19:33;1.83;;;1.70;;
16254;SDS011;8235;52.198;9.904;2023-07-28T10:22:00;1.60;;;1.50;;
16254;SDS011;8235;52.198;9.904;2023-07-28T10:27:27;1.55;;;1.27;;
16254;SDS011;8235;52.198;9.904;2023-07-28T10:29:59;1.77;;;1.67;;
16254;SDS011;8235;52.198;9.904;2023-07-28T10:32:34;1.88;;;1.77;;
16254;SDS011;8235;52.198;9.904;2023-07-28T10:35:06;1.70;;;1.60;;
16254;SDS011;8235;52.198;9.904;2023-07-28T10:37:34;1.90;;;1.80;;
16254;SDS011;8235;52.198;9.904;2023-07-28T10:42:52;1.70;;;1.60;;
16254;SDS011;8235;52.198;9.904;2023-07-28T10:45:21;1.58;;;1.48;;
16254;SDS011;8235;52.198;9.904;2023-07-28T10:47:48;1.75;;;1.40;;
16254;SDS011;8235;52.198;9.904;2023-07-28T10:50:15;1.27;;;1.23;;
16254;SDS011;8235;52.198;9.904;2023-07-28T10:52:42;1.73;;;1.63;;
16254;SDS011;8235;52.198;9.904;2023-07-28T10:55:12;1.58;;;1.42;;
16254;SDS011;8235;52.198;9.904;2023-07-28T10:57:40;1.70;;;1.50;;
16254;SDS011;8235;52.198;9.904;2023-07-28T11:00:08;2.72;;;1.90;;
16254;SDS011;8235;52.198;9.904;2023-07-28T11:02:39;1.83;;;1.73;;
16254;SDS011;8235;52.198;9.904;2023-07-28T11:05:09;1.73;;;1.63;;
16254;SDS011;8235;52.198;9.904;2023-07-28T11:07:37;1.60;;;1.50;;
16254;SDS011;8235;52.198;9.904;2023-07-28T11:10:04;2.03;;;1.92;;
16254;SDS011;8235;52.198;9.904;2023-07-28T11:12:32;2.08;;;1.95;;
16254;SDS011;8235;52.198;9.904;2023-07-28T11:14:59;2.85;;;2.50;;
16254;SDS011;8235;52.198;9.904;2023-07-28T11:17:25;2.58;;;2.38;;
16254;SDS011;8235;52.198;9.904;2023-07-28T11:19:54;3.35;;;2.40;;
16254;SDS011;8235;52.198;9.904;2023-07-28T11:22:21;1.70;;;1.60;;
16254;SDS011;8235;52.198;9.904;2023-07-28T11:24:50;1.60;;;1.50;;
16254;SDS011;8235;52.198;9.904;2023-07-28T11:27:17;2.03;;;1.55;;
16254;SDS011;8235;52.198;9.904;2023-07-28T11:29:43;2.38;;;1.83;;
16254;SDS011;8235;52.198;9.904;2023-07-28T11:32:10;2.22;;;2.03;;
16254;SDS011;8235;52.198;9.904;2023-07-28T11:34:36;2.30;;;2.10;;
16254;SDS011;8235;52.198;9.904;2023-07-28T11:37:05;2.20;;;2.00;;
16254;SDS011;8235;52.198;9.904;2023-07-28T11:39:33;2.40;;;2.20;;
16254;SDS011;8235;52.198;9.904;2023-07-28T11:42:00;2.40;;;2.20;;
16254;SDS011;8235;52.198;9.904;2023-07-28T11:44:27;2.50;;;2.28;;
16254;SDS011;8235;52.198;9.904;2023-07-28T11:46:53;2.50;;;2.30;;
16254;SDS011;8235;52.198;9.904;2023-07-28T11:49:20;3.63;;;2.70;;
16254;SDS011;8235;52.198;9.904;2023-07-28T11:51:48;2.20;;;2.00;;
16254;SDS011;8235;52.198;9.904;2023-07-28T11:54:20;2.85;;;2.55;;
16254;SDS011;8235;52.198;9.904;2023-07-28T11:56:48;2.13;;;1.98;;
16254;SDS011;8235;52.198;9.904;2023-07-28T11:59:16;2.38;;;2.17;;
16254;SDS011;8235;52.198;9.904;2023-07-28T12:01:53;2.78;;;2.45;;
16254;SDS011;8235;52.198;9.904;2023-07-28T12:04:24;2.63;;;2.42;;
16254;SDS011;8235;52.198;9.904;2023-07-28T12:07:02;2.30;;;2.10;;
16254;SDS011;8235;52.198;9.904;2023-07-28T12:09:32;2.53;;;2.08;;
16254;SDS011;8235;52.198;9.904;2023-07-28T12:11:59;2.30;;;2.10;;
16254;SDS011;8235;52.198;9.904;2023-07-28T12:14:32;2.60;;;2.40;;
16254;SDS011;8235;52.198;9.904;2023-07-28T12:16:59;1.85;;;1.75;;
16254;SDS011;8235;52.198;9.904;2023-07-28T12:19:26;2.00;;;1.90;;
16254;SDS011;8235;52.198;9.904;2023-07-28T12:21:53;2.22;;;1.90;;
16254;SDS011;8235;52.198;9.904;2023-07-28T12:24:19;1.95;;;1.70;;
16254;SDS011;8235;52.198;9.904;2023-07-28T12:26:48;2.85;;;1.67;;
16254;SDS011;8235;52.198;9.904;2023-07-28T12:29:16;1.80;;;1.70;;
16254;SDS011;8235;52.198;9.904;2023-07-28T12:31:43;1.60;;;1.50;;
16254;SDS011;8235;52.198;9.904;2023-07-28T12:34:09;1.63;;;1.50;;
16254;SDS011;8235;52.198;9.904;2023-07-28T12:36:36;1.55;;;1.45;;
16254;SDS011;8235;52.198;9.904;2023-07-28T12:39:02;1.95;;;1.35;;
16254;SDS011;8235;52.198;9.904;2023-07-28T12:41:31;1.80;;;1.70;;
16254;SDS011;8235;52.198;9.904;2023-07-28T12:43:58;1.70;;;1.60;;
16254;SDS011;8235;52.198;9.904;2023-07-28T12:46:25;1.50;;;1.40;;
16254;SDS011;8235;52.198;9.904;2023-07-28T12:48:51;1.60;;;1.50;;
16254;SDS011;8235;52.198;9.904;2023-07-28T12:51:18;2.05;;;1.85;;
16254;SDS011;8235;52.198;9.904;2023-07-28T12:53:44;1.60;;;1.50;;
16254;SDS011;8235;52.198;9.904;2023-07-28T12:56:11;1.70;;;1.58;;
16254;SDS011;8235;52.198;9.904;2023-07-28T12:58:37;1.70;;;1.60;;
16254;SDS011;8235;52.198;9.904;2023-07-28T13:01:05;1.83;;;1.73;;
16254;SDS011;8235;52.198;9.904;2023-07-28T13:03:33;2.63;;;1.85;;
16254;SDS011;8235;52.198;9.904;2023-07-28T13:05:59;2.08;;;1.88;;
16254;SDS011;8235;52.198;9.904;2023-07-28T13:08:26;2.00;;;1.83;;
16254;SDS011;8235;52.198;9.904;2023-07-28T13:10:52;2.78;;;1.83;;
16254;SDS011;8235;52.198;9.904;2023-07-28T13:13:19;2.30;;;1.85;;
16254;SDS011;8235;52.198;9.904;2023-07-28T13:15:45;1.92;;;1.83;;
16254;SDS011;8235;52.198;9.904;2023-07-28T13:18:13;2.08;;;1.88;;
16254;SDS011;8235;52.198;9.904;2023-07-28T13:20:40;1.77;;;1.60;;
16254;SDS011;8235;52.198;9.904;2023-07-28T13:23:06;1.85;;;1.40;;
16254;SDS011;8235;52.198;9.904;2023-07-28T13:25:32;1.75;;;1.65;;
16254;SDS011;8235;52.198;9.904;2023-07-28T13:27:59;1.67;;;1.50;;
16254;SDS011;8235;52.198;9.904;2023-07-28T13:30:25;2.03;;;1.90;;
16254;SDS011;8235;52.198;9.904;2023-07-28T13:32:52;2.25;;;1.80;;
16254;SDS011;8235;52.198;9.904;2023-07-28T13:35:20;1.63;;;1.52;;
16254;SDS011;8235;52.198;9.904;2023-07-28T13:37:46;2.50;;;2.30;;
16254;SDS011;8235;52.198;9.904;2023-07-28T13:40:12;1.98;;;1.88;;
16254;SDS011;8235;52.198;9.904;2023-07-28T13:42:39;2.30;;;2.15;;
16254;SDS011;8235;52.198;9.904;2023-07-28T13:45:06;2.45;;;1.85;;
16254;SDS011;8235;52.198;9.904;2023-07-28T13:47:34;2.90;;;1.90;;
16254;SDS011;8235;52.198;9.904;2023-07-28T13:50:01;2.35;;;1.83;;
16254;SDS011;8235;52.198;9.904;2023-07-28T13:52:29;2.20;;;2.00;;
16254;SDS011;8235;52.198;9.904;2023-07-28T13:54:55;1.92;;;1.83;;
16254;SDS011;8235;52.198;9.904;2023-07-28T13:57:21;2.53;;;1.75;;
16254;SDS011;8235;52.198;9.904;2023-07-28T13:59:48;2.17;;;1.70;;
16254;SDS011;8235;52.198;9.904;2023-07-28T14:02:14;2.05;;;1.58;;
16254;SDS011;8235;52.198;9.904;2023-07-28T14:04:41;1.88;;;1.77;;
16254;SDS011;8235;52.198;9.904;2023-07-28T14:07:07;1.67;;;1.58;;
16254;SDS011;8235;52.198;9.904;2023-07-28T14:09:35;2.25;;;2.00;;
16254;SDS011;8235;52.198;9.904;2023-07-28T14:12:03;2.50;;;2.00;;
16254;SDS011;8235;52.198;9.904;2023-07-28T14:14:29;2.03;;;1.60;;
16254;SDS011;8235;52.198;9.904;2023-07-28T14:16:56;1.75;;;1.65;;
16254;SDS011;8235;52.198;9.904;2023-07-28T14:19:22;2.13;;;1.88;;
16254;SDS011;8235;52.198;9.904;2023-07-28T14:21:49;1.80;;;1.70;;
16254;SDS011;8235;52.198;9.904;2023-07-28T14:24:15;2.03;;;1.83;;
16254;SDS011;8235;52.198;9.904;2023-07-28T14:26:43;5.00;;;1.98;;
16254;SDS011;8235;52.198;9.904;2023-07-28T14:29:10;2.30;;;2.10;;
16254;SDS011;8235;52.198;9.904;2023-07-28T14:31:36;2.40;;;2.20;;
16254;SDS011;8235;52.198;9.904;2023-07-28T14:34:03;1.80;;;1.70;;
16254;SDS011;8235;52.198;9.904;2023-07-28T14:36:29;2.00;;;1.90;;
16254;SDS011;8235;52.198;9.904;2023-07-28T14:38:55;2.00;;;1.90;;
16254;SDS011;8235;52.198;9.904;2023-07-28T14:41:22;1.70;;;1.60;;
16254;SDS011;8235;52.198;9.904;2023-07-28T14:43:51;1.77;;;1.60;;
16254;SDS011;8235;52.198;9.904;2023-07-28T14:46:17;2.40;;;1.80;;
16254;SDS011;8235;52.198;9.904;2023-07-28T14:48:45;2.25;;;2.05;;
16254;SDS011;8235;52.198;9.904;2023-07-28T14:51:11;2.10;;;2.00;;
16254;SDS011;8235;52.198;9.904;2023-07-28T14:53:38;2.25;;;2.05;;
16254;SDS011;8235;52.198;9.904;2023-07-28T14:56:05;2.53;;;2.10;;
16254;SDS011;8235;52.198;9.904;2023-07-28T14:58:32;2.40;;;2.20;;
16254;SDS011;8235;52.198;9.904;2023-07-28T15:01:00;2.88;;;2.67;;
16254;SDS011;8235;52.198;9.904;2023-07-28T15:03:29;2.38;;;2.17;;
16254;SDS011;8235;52.198;9.904;2023-07-28T15:05:56;3.28;;;2.83;;
16254;SDS011;8235;52.198;9.904;2023-07-28T15:08:24;2.80;;;2.60;;